createdAt,value
2022-11-17T00:01:17.356Z,7.24
2022-11-17T00:04:03.704Z,7.26
2022-11-17T00:06:50.305Z,7.24
2022-11-17T00:09:37.386Z,7.29
2022-11-17T00:12:42.296Z,7.23
2022-11-17T00:15:28.866Z,7.22
2022-11-17T00:18:33.843Z,7.21
2022-11-17T00:21:21.241Z,7.16
2022-11-17T00:24:08.308Z,7.34
2022-11-17T00:27:03.560Z,7.49
2022-11-17T00:29:50.366Z,7.37
2022-11-17T00:32:55.386Z,7.49
2022-11-17T00:35:41.615Z,7.29
2022-11-17T00:38:28.097Z,7.35
2022-11-17T00:41:14.694Z,6.88
2022-11-17T00:44:01.415Z,6.93
2022-11-17T00:46:48.534Z,7.35
2022-11-17T00:49:36.647Z,7.40
2022-11-17T00:52:22.916Z,7.35
2022-11-17T00:55:10.069Z,7.43
2022-11-17T00:57:56.589Z,7.42
2022-11-17T01:00:42.848Z,7.46
2022-11-17T01:03:29.298Z,7.42
2022-11-17T01:06:18.878Z,7.43
2022-11-17T01:09:08.214Z,7.42
2022-11-17T01:11:54.455Z,7.45
2022-11-17T01:14:40.922Z,7.58
2022-11-17T01:17:27.012Z,7.68
2022-11-17T01:20:13.410Z,7.67
2022-11-17T01:23:00.148Z,7.70
2022-11-17T01:25:46.416Z,7.62
2022-11-17T01:28:33.266Z,7.47
2022-11-17T01:31:22.669Z,7.44
2022-11-17T01:34:09.149Z,7.42
2022-11-17T01:37:14.200Z,7.45
2022-11-17T01:40:00.579Z,7.68
2022-11-17T01:42:50.043Z,7.61
2022-11-17T01:45:37.824Z,7.47
2022-11-17T01:48:24.133Z,7.41
2022-11-17T01:51:14.094Z,7.54
2022-11-17T01:54:02.358Z,7.49
2022-11-17T01:56:54.416Z,7.42
2022-11-17T01:59:45.227Z,7.47
2022-11-17T02:02:33.033Z,7.43
2022-11-17T02:05:33.335Z,7.44
2022-11-17T02:08:22.875Z,7.47
2022-11-17T02:11:14.191Z,7.40
2022-11-17T02:14:00.492Z,7.57
2022-11-17T02:16:47.163Z,7.64
2022-11-17T02:19:38.275Z,7.77
2022-11-17T02:22:52.617Z,7.77
2022-11-17T02:26:13.452Z,7.80
2022-11-17T02:29:11.006Z,7.80
2022-11-17T02:32:13.112Z,7.80
2022-11-17T02:35:28.096Z,7.86
2022-11-17T02:38:24.757Z,7.87
2022-11-17T02:41:22.971Z,7.87
2022-11-17T02:44:31.367Z,7.80
2022-11-17T02:47:26.292Z,7.66
2022-11-17T02:50:13.985Z,7.72
2022-11-17T02:53:00.650Z,7.71
2022-11-17T02:55:52.171Z,7.82
2022-11-17T02:58:38.866Z,7.61
2022-11-17T03:01:34.381Z,7.55
2022-11-17T03:04:50.117Z,7.64
2022-11-17T03:07:56.227Z,7.68
2022-11-17T03:10:49.592Z,7.68
2022-11-17T03:14:04.340Z,7.66
2022-11-17T03:17:18.562Z,7.59
2022-11-17T03:20:26.302Z,7.58
2022-11-17T03:23:41.140Z,7.61
2022-11-17T03:26:34.917Z,7.64
2022-11-17T03:29:24.223Z,7.65
2022-11-17T03:32:11.286Z,7.56
2022-11-17T03:35:03.120Z,7.54
2022-11-17T03:37:53.765Z,7.54
2022-11-17T03:40:45.150Z,7.45
2022-11-17T03:43:32.595Z,7.50
2022-11-17T03:46:21.827Z,7.55
2022-11-17T03:49:26.950Z,7.68
2022-11-17T03:52:13.857Z,7.46
2022-11-17T03:55:01.576Z,7.47
2022-11-17T03:58:06.714Z,7.52
2022-11-17T04:00:54.692Z,7.62
2022-11-17T04:03:41.369Z,7.53
2022-11-17T04:06:27.829Z,7.53
2022-11-17T04:09:14.145Z,7.60
2022-11-17T04:12:19.109Z,7.64
2022-11-17T04:15:24.729Z,7.69
2022-11-17T04:18:11.537Z,7.65
2022-11-17T04:20:58.177Z,7.81
2022-11-17T04:23:44.541Z,7.78
2022-11-17T04:27:06.217Z,7.77
2022-11-17T04:29:52.658Z,7.71
2022-11-17T04:32:39.167Z,7.78
2022-11-17T04:35:25.800Z,7.78
2022-11-17T04:38:12.409Z,8.01
2022-11-17T04:41:23.678Z,8.21
2022-11-17T04:44:12.315Z,8.15
2022-11-17T04:46:59.447Z,8.25
2022-11-17T04:49:45.918Z,8.23
2022-11-17T04:52:32.416Z,8.27
2022-11-17T04:55:23.666Z,8.19
2022-11-17T04:58:11.092Z,8.20
2022-11-17T05:01:12.208Z,8.24
2022-11-17T05:04:00.680Z,8.28
2022-11-17T05:06:46.986Z,8.41
2022-11-17T05:09:33.431Z,7.95
2022-11-17T05:12:38.118Z,8.52
2022-11-17T05:15:44.753Z,8.57
2022-11-17T05:18:30.990Z,8.55
2022-11-17T05:21:17.357Z,8.35
2022-11-17T05:24:04.459Z,8.27
2022-11-17T05:26:50.939Z,8.35
2022-11-17T05:29:37.194Z,8.27
2022-11-17T05:32:23.402Z,8.10
2022-11-17T05:35:10.662Z,8.07
2022-11-17T05:37:56.968Z,8.18
2022-11-17T05:40:43.061Z,8.15
2022-11-17T05:43:29.425Z,8.35
2022-11-17T05:46:18.149Z,8.39
2022-11-17T05:49:04.646Z,8.50
2022-11-17T05:51:52.933Z,8.38
2022-11-17T05:54:39.592Z,8.37
2022-11-17T05:57:30.965Z,8.43
2022-11-17T06:00:17.467Z,8.44
2022-11-17T06:03:20.519Z,8.51
2022-11-17T06:06:08.348Z,8.49
2022-11-17T06:08:56.250Z,8.55
2022-11-17T06:11:42.750Z,8.56
2022-11-17T06:14:29.047Z,8.53
2022-11-17T06:17:25.810Z,8.53
2022-11-17T06:20:18.048Z,8.50
2022-11-17T06:23:07.013Z,8.76
2022-11-17T06:25:53.747Z,8.67
2022-11-17T06:28:43.560Z,8.44
2022-11-17T06:31:32.360Z,8.83
2022-11-17T06:34:19.292Z,8.85
2022-11-17T06:37:05.556Z,8.81
2022-11-17T06:39:52.709Z,8.76
2022-11-17T06:43:09.639Z,8.83
2022-11-17T06:45:56.151Z,8.85
2022-11-17T06:48:42.930Z,8.24
2022-11-17T06:51:34.842Z,8.86
2022-11-17T06:54:21.634Z,8.72
2022-11-17T06:57:08.607Z,8.93
2022-11-17T06:59:55.126Z,9.03
2022-11-17T07:02:41.979Z,8.83
2022-11-17T07:05:29.054Z,8.77
2022-11-17T07:08:15.705Z,8.67
2022-11-17T07:11:07.982Z,8.65
2022-11-17T07:13:55.194Z,8.66
2022-11-17T07:16:43.489Z,8.67
2022-11-17T07:19:30.114Z,8.79
2022-11-17T07:22:16.483Z,8.88
2022-11-17T07:25:04.624Z,9.01
2022-11-17T07:27:58.234Z,8.90
2022-11-17T07:30:44.896Z,9.01
2022-11-17T07:33:33.201Z,9.06
2022-11-17T07:36:19.962Z,9.01
2022-11-17T07:39:07.017Z,9.09
2022-11-17T07:41:54.294Z,9.04
2022-11-17T07:44:41.196Z,9.04
2022-11-17T07:47:28.005Z,9.26
2022-11-17T07:50:15.864Z,9.35
2022-11-17T07:53:02.781Z,9.69
2022-11-17T07:55:49.380Z,9.76
2022-11-17T07:58:37.536Z,9.63
2022-11-17T08:01:27.437Z,9.62
2022-11-17T08:04:14.526Z,9.71
2022-11-17T08:07:01.200Z,9.71
2022-11-17T08:09:48.049Z,9.84
2022-11-17T08:12:34.759Z,9.91
2022-11-17T08:15:22.506Z,10.08
2022-11-17T08:18:09.657Z,9.96
2022-11-17T08:21:06.638Z,10.07
2022-11-17T08:23:55.192Z,10.17
2022-11-17T08:26:41.930Z,10.17
2022-11-17T08:29:28.607Z,10.14
2022-11-17T08:32:15.549Z,10.16
2022-11-17T08:35:07.310Z,10.11
2022-11-17T08:37:55.172Z,10.15
2022-11-17T08:40:42.119Z,10.19
2022-11-17T08:43:29.092Z,10.32
2022-11-17T08:46:15.546Z,10.46
2022-11-17T08:49:03.033Z,10.52
2022-11-17T08:51:49.614Z,10.57
2022-11-17T08:54:36.313Z,10.67
2022-11-17T08:57:23.080Z,10.79
2022-11-17T09:00:10.932Z,10.74
2022-11-17T09:02:57.205Z,10.30
2022-11-17T09:05:47.144Z,10.67
2022-11-17T09:08:48.910Z,10.65
2022-11-17T09:11:40.216Z,10.67
2022-11-17T09:14:31.642Z,10.80
2022-11-17T09:17:18.146Z,10.76
2022-11-17T09:20:05.219Z,11.04
2022-11-17T09:22:51.620Z,11.15
2022-11-17T09:25:38.011Z,11.17
2022-11-17T09:28:25.939Z,11.22
2022-11-17T09:31:16.233Z,11.39
2022-11-17T09:34:05.633Z,11.21
2022-11-17T09:36:52.480Z,11.24
2022-11-17T09:39:39.176Z,11.22
2022-11-17T09:42:25.941Z,11.16
2022-11-17T09:45:25.563Z,11.19
2022-11-17T09:48:40.703Z,11.16
2022-11-17T09:51:31.590Z,11.18
2022-11-17T09:54:41.672Z,11.18
2022-11-17T09:57:36.505Z,11.17
2022-11-17T10:00:23.284Z,11.24
2022-11-17T10:03:22.147Z,11.30
2022-11-17T10:06:19.933Z,11.43
2022-11-17T10:09:27.768Z,11.70
2022-11-17T10:12:26.767Z,11.88
2022-11-17T10:15:31.668Z,12.10
2022-11-17T10:18:18.208Z,12.13
2022-11-17T10:21:06.784Z,12.37
2022-11-17T10:23:58.436Z,12.49
2022-11-17T10:26:49.450Z,12.71
2022-11-17T10:29:36.073Z,12.77
2022-11-17T10:32:22.717Z,12.79
2022-11-17T10:35:27.619Z,12.79
2022-11-17T10:38:22.191Z,12.74
2022-11-17T10:41:15.595Z,12.74
2022-11-17T10:44:17.242Z,12.69
2022-11-17T10:47:04.684Z,12.81
2022-11-17T10:50:28.479Z,12.84
2022-11-17T10:53:25.714Z,12.84
2022-11-17T10:56:16.455Z,12.96
2022-11-17T10:59:19.452Z,13.20
2022-11-17T11:02:27.746Z,13.13
2022-11-17T11:05:23.390Z,13.71
2022-11-17T11:08:20.353Z,13.90
2022-11-17T11:11:17.809Z,13.98
2022-11-17T11:14:26.251Z,13.87
2022-11-17T11:17:16.287Z,13.70
2022-11-17T11:20:04.350Z,13.56
2022-11-17T11:22:58.993Z,13.43
2022-11-17T11:25:58.967Z,13.41
2022-11-17T11:29:08.235Z,13.38
2022-11-17T11:32:26.824Z,13.36
2022-11-17T11:35:48.117Z,13.44
2022-11-17T11:38:43.298Z,13.46
2022-11-17T11:41:44.810Z,13.48
2022-11-17T11:45:35.414Z,13.52
2022-11-17T11:48:28.121Z,13.53
2022-11-17T11:51:37.328Z,13.49
2022-11-17T11:54:46.312Z,13.43
2022-11-17T11:57:49.372Z,13.43
2022-11-17T12:00:35.903Z,13.46
2022-11-17T12:03:30.134Z,13.44
2022-11-17T12:06:47.418Z,13.44
2022-11-17T12:09:46.719Z,13.38
2022-11-17T12:12:41.057Z,13.26
2022-11-17T12:15:27.392Z,13.38
2022-11-17T12:18:31.143Z,13.45
2022-11-17T12:21:25.709Z,13.70
2022-11-17T12:24:33.819Z,13.72
2022-11-17T12:27:36.158Z,13.72
2022-11-17T12:30:28.922Z,13.76
2022-11-17T12:33:15.618Z,13.80
2022-11-17T12:36:29.770Z,13.81
2022-11-17T12:39:54.908Z,13.88
2022-11-17T12:43:16.497Z,13.98
2022-11-17T12:46:35.706Z,13.99
2022-11-17T12:49:38.783Z,14.09
2022-11-17T12:52:31.558Z,14.17
2022-11-17T12:55:23.780Z,14.27
2022-11-17T12:58:33.723Z,14.27
2022-11-17T13:01:41.595Z,14.37
2022-11-17T13:04:49.864Z,14.33
2022-11-17T13:07:36.485Z,14.38
2022-11-17T13:10:29.512Z,14.44
2022-11-17T13:13:17.614Z,14.41
2022-11-17T13:16:04.833Z,14.26
2022-11-17T13:18:51.890Z,14.28
2022-11-17T13:21:38.423Z,14.33
2022-11-17T13:24:31.383Z,14.43
2022-11-17T13:27:29.931Z,14.57
2022-11-17T13:30:25.365Z,14.55
2022-11-17T13:33:21.752Z,14.53
2022-11-17T13:36:25.027Z,14.59
2022-11-17T13:39:17.033Z,14.61
2022-11-17T13:42:04.143Z,14.76
2022-11-17T13:44:50.834Z,14.91
2022-11-17T13:47:37.255Z,15.15
2022-11-17T13:50:26.859Z,15.20
2022-11-17T13:53:25.374Z,15.30
2022-11-17T13:56:31.036Z,15.41
2022-11-17T13:59:47.955Z,15.41
2022-11-17T14:02:34.351Z,15.17
2022-11-17T14:05:30.084Z,15.15
2022-11-17T14:08:23.250Z,14.92
2022-11-17T14:11:09.808Z,14.66
2022-11-17T14:14:01.200Z,14.39
2022-11-17T14:16:47.925Z,14.20
2022-11-17T14:19:34.402Z,14.05
2022-11-17T14:22:30.812Z,13.88
2022-11-17T14:25:22.821Z,13.82
2022-11-17T14:28:18.022Z,13.78
2022-11-17T14:31:04.535Z,13.77
2022-11-17T14:33:50.957Z,13.66
2022-11-17T14:36:39.206Z,13.39
2022-11-17T14:39:25.539Z,13.20
2022-11-17T14:42:12.206Z,12.87
2022-11-17T14:44:58.547Z,12.75
2022-11-17T14:47:45.483Z,12.69
2022-11-17T14:50:33.223Z,12.57
2022-11-17T14:53:19.924Z,12.53
2022-11-17T14:56:10.024Z,12.42
2022-11-17T14:59:00.382Z,12.38
2022-11-17T15:01:46.829Z,12.44
2022-11-17T15:04:50.060Z,12.26
2022-11-17T15:07:37.912Z,12.18
2022-11-17T15:10:55.339Z,12.19
2022-11-17T15:13:44.979Z,12.06
2022-11-17T15:16:59.994Z,11.74
2022-11-17T15:19:46.692Z,11.60
2022-11-17T15:22:33.475Z,11.43
2022-11-17T15:25:25.832Z,11.30
2022-11-17T15:28:15.301Z,11.23
2022-11-17T15:31:15.173Z,11.06
2022-11-17T15:34:01.697Z,10.84
2022-11-17T15:36:49.083Z,10.68
2022-11-17T15:39:36.445Z,10.48
2022-11-17T15:42:23.018Z,10.26
2022-11-17T15:45:10.793Z,10.24
2022-11-17T15:48:05.834Z,10.18
2022-11-17T15:51:00.430Z,10.19
2022-11-17T15:53:48.961Z,10.35
2022-11-17T15:56:39.348Z,10.45
2022-11-17T15:59:25.893Z,10.78
2022-11-17T16:02:16.210Z,10.78
2022-11-17T16:05:02.869Z,10.75
2022-11-17T16:07:49.171Z,10.77
2022-11-17T16:10:35.917Z,10.71
2022-11-17T16:13:23.293Z,10.70
2022-11-17T16:16:36.587Z,10.90
2022-11-17T16:19:22.934Z,10.68
2022-11-17T16:22:09.580Z,10.59
2022-11-17T16:24:56.379Z,10.51
2022-11-17T16:27:43.025Z,10.64
2022-11-17T16:30:35.210Z,10.75
2022-11-17T16:33:22.293Z,10.70
2022-11-17T16:36:09.171Z,10.57
2022-11-17T16:39:13.586Z,10.37
2022-11-17T16:42:01.470Z,10.23
2022-11-17T16:44:48.019Z,9.99
2022-11-17T16:47:35.114Z,9.79
2022-11-17T16:50:21.482Z,9.52
2022-11-17T16:53:07.879Z,9.49
2022-11-17T16:55:54.110Z,9.44
2022-11-17T16:58:40.766Z,9.32
2022-11-17T17:01:34.805Z,9.21
2022-11-17T17:04:22.951Z,9.14
2022-11-17T17:07:09.277Z,9.01
2022-11-17T17:09:55.861Z,8.97
2022-11-17T17:12:54.537Z,8.83
2022-11-17T17:15:41.828Z,8.80
2022-11-17T17:18:28.710Z,8.87
2022-11-17T17:21:18.999Z,8.95
2022-11-17T17:24:06.288Z,9.01
2022-11-17T17:26:52.659Z,9.02
2022-11-17T17:29:41.463Z,9.08
2022-11-17T17:32:28.524Z,9.13
2022-11-17T17:35:15.200Z,9.07
2022-11-17T17:38:01.914Z,9.10
2022-11-17T17:40:48.573Z,9.14
2022-11-17T17:43:38.433Z,9.13
2022-11-17T17:46:25.766Z,9.13
2022-11-17T17:49:12.913Z,9.08
2022-11-17T17:51:59.694Z,9.24
2022-11-17T17:54:46.098Z,9.24
2022-11-17T17:57:34.024Z,9.17
2022-11-17T18:00:20.760Z,9.11
2022-11-17T18:03:07.270Z,9.10
2022-11-17T18:05:58.791Z,9.11
2022-11-17T18:08:45.600Z,9.19
2022-11-17T18:11:33.327Z,9.27
2022-11-17T18:14:25.045Z,9.34
2022-11-17T18:17:11.397Z,9.30
2022-11-17T18:19:57.880Z,9.17
2022-11-17T18:22:44.596Z,9.31
2022-11-17T18:25:32.768Z,9.34
2022-11-17T18:28:20.043Z,9.29
2022-11-17T18:31:08.104Z,9.48
2022-11-17T18:33:59.805Z,9.56
2022-11-17T18:36:46.984Z,9.51
2022-11-17T18:39:33.492Z,9.49
2022-11-17T18:42:19.934Z,9.37
2022-11-17T18:45:06.703Z,9.31
2022-11-17T18:47:53.244Z,9.15
2022-11-17T18:51:12.206Z,9.10
2022-11-17T18:53:54.222Z,9.11
2022-11-17T18:56:40.932Z,9.10
2022-11-17T18:59:27.671Z,9.09
2022-11-17T19:02:14.228Z,9.12
2022-11-17T19:05:01.097Z,9.06
2022-11-17T19:07:48.405Z,9.06
2022-11-17T19:10:34.789Z,9.15
2022-11-17T19:13:22.030Z,9.09
2022-11-17T19:16:17.217Z,9.06
2022-11-17T19:19:03.543Z,9.30
2022-11-17T19:21:50.248Z,9.26
2022-11-17T19:24:36.723Z,9.33
2022-11-17T19:27:23.598Z,9.39
2022-11-17T19:30:10.615Z,9.19
2022-11-17T19:32:57.961Z,9.18
2022-11-17T19:35:44.770Z,9.23
2022-11-17T19:38:35.546Z,9.24
2022-11-17T19:41:34.211Z,9.13
2022-11-17T19:44:20.734Z,9.16
2022-11-17T19:47:07.547Z,9.10
2022-11-17T19:49:53.732Z,9.06
2022-11-17T19:52:40.068Z,8.92
2022-11-17T19:55:26.870Z,8.86
2022-11-17T19:58:16.334Z,8.86
2022-11-17T20:01:13.965Z,8.97
2022-11-17T20:04:01.571Z,8.97
2022-11-17T20:06:48.623Z,9.02
2022-11-17T20:09:35.963Z,8.95
2022-11-17T20:12:22.545Z,8.93
2022-11-17T20:15:27.017Z,8.96
2022-11-17T20:18:17.289Z,8.77
2022-11-17T20:21:05.656Z,8.84
2022-11-17T20:23:52.190Z,8.92
2022-11-17T20:26:40.887Z,8.79
2022-11-17T20:29:27.189Z,8.77
2022-11-17T20:32:13.683Z,8.71
2022-11-17T20:35:00.046Z,8.61
2022-11-17T20:37:46.897Z,8.57
2022-11-17T20:40:34.109Z,8.44
2022-11-17T20:43:20.543Z,8.44
2022-11-17T20:46:07.470Z,8.36
2022-11-17T20:48:54.264Z,8.41
2022-11-17T20:51:41.850Z,8.35
2022-11-17T20:54:28.386Z,8.23
2022-11-17T20:57:15.012Z,8.34
2022-11-17T21:00:01.672Z,8.23
2022-11-17T21:02:48.347Z,8.32
2022-11-17T21:05:34.815Z,8.07
2022-11-17T21:08:21.830Z,8.15
2022-11-17T21:11:11.171Z,8.20
2022-11-17T21:13:57.873Z,7.59
2022-11-17T21:16:45.700Z,8.00
2022-11-17T21:19:36.514Z,7.92
2022-11-17T21:22:26.096Z,7.93
2022-11-17T21:25:12.529Z,7.90
2022-11-17T21:27:59.343Z,7.83
2022-11-17T21:30:47.291Z,7.92
2022-11-17T21:33:35.827Z,7.95
2022-11-17T21:36:24.621Z,8.15
2022-11-17T21:39:17.317Z,8.06
2022-11-17T21:42:04.699Z,8.03
2022-11-17T21:44:51.329Z,7.98
2022-11-17T21:47:38.149Z,7.78
2022-11-17T21:50:24.974Z,7.85
2022-11-17T21:53:11.324Z,7.75
2022-11-17T21:56:02.630Z,7.34
2022-11-17T21:58:53.765Z,7.86
2022-11-17T22:01:41.007Z,7.88
2022-11-17T22:04:27.959Z,7.89
2022-11-17T22:07:15.044Z,7.81
2022-11-17T22:10:01.708Z,7.78
2022-11-17T22:12:57.163Z,7.85
2022-11-17T22:15:53.910Z,7.68
2022-11-17T22:18:41.925Z,7.82
2022-11-17T22:21:28.505Z,7.89
2022-11-17T22:24:15.499Z,7.78
2022-11-17T22:27:01.916Z,7.83
2022-11-17T22:29:48.436Z,7.91
2022-11-17T22:32:34.743Z,7.93
2022-11-17T22:35:23.429Z,7.95
2022-11-17T22:38:10.082Z,7.93
2022-11-17T22:41:01.505Z,7.89
2022-11-17T22:43:52.237Z,7.73
2022-11-17T22:46:40.505Z,7.60
2022-11-17T22:49:27.222Z,7.64
2022-11-17T22:52:13.705Z,7.72
2022-11-17T22:55:00.437Z,7.60
2022-11-17T22:57:46.891Z,7.54
2022-11-17T23:00:33.542Z,7.48
2022-11-17T23:03:20.167Z,7.40
2022-11-17T23:06:07.057Z,7.22
2022-11-17T23:08:54.899Z,7.37
2022-11-17T23:11:42.273Z,7.36
2022-11-17T23:14:28.924Z,7.33
2022-11-17T23:17:15.327Z,7.49
2022-11-17T23:20:01.966Z,7.48
2022-11-17T23:22:53.796Z,7.27
2022-11-17T23:25:40.154Z,7.38
2022-11-17T23:28:26.742Z,7.29
2022-11-17T23:31:16.656Z,7.31
2022-11-17T23:34:03.311Z,7.18
2022-11-17T23:36:49.494Z,7.19
2022-11-17T23:39:36.280Z,7.24
2022-11-17T23:42:22.661Z,7.22
2022-11-17T23:45:11.718Z,7.17
2022-11-17T23:47:58.112Z,7.13
2022-11-17T23:50:44.595Z,7.17
2022-11-17T23:53:31.331Z,7.24
2022-11-17T23:56:20.437Z,7.24
2022-11-17T23:59:08.194Z,7.18
